Time;durP1;ratioP1;P1;durP2;ratioP2;P2;SDS_P1;SDS_P2;PMS_P1;PMS_P2;Temp;Humidity;BMP_temperature;BMP_pressure;BME280_temperature;BME280_humidity;BME280_pressure;Samples;Min_cycle;Max_cycle;Signal;HPM_P1;HPM_P2
2022/04/21 00:00:15;;;;;;;2.80;1.42;;;13.90;49.90;;;;;;4988404;28;20868;-78
2022/04/21 00:02:42;;;;;;;2.65;1.90;;;13.80;50.40;;;;;;4973464;28;20176;-78
2022/04/21 00:05:09;;;;;;;2.10;1.10;;;13.80;50.40;;;;;;4972416;28;20210;-79
2022/04/21 00:07:36;;;;;;;2.20;1.30;;;13.70;50.80;;;;;;4988146;28;20256;-78
2022/04/21 00:10:03;;;;;;;2.15;1.77;;;13.70;50.50;;;;;;4973135;28;20206;-78
2022/04/21 00:12:29;;;;;;;2.20;1.10;;;13.70;51.10;;;;;;4973588;28;20168;-78
2022/04/21 00:14:55;;;;;;;2.47;1.13;;;13.70;50.20;;;;;;4973384;28;20195;-78
2022/04/21 00:17:21;;;;;;;2.47;1.40;;;13.60;50.30;;;;;;4973366;28;20168;-79
2022/04/21 00:19:47;;;;;;;2.60;1.38;;;13.60;50.50;;;;;;4972540;28;20187;-79
2022/04/21 00:24:57;;;;;;;1.75;1.10;;;13.50;51.30;;;;;;4973023;28;20257;-79
2022/04/21 00:27:22;;;;;;;2.63;1.60;;;13.60;50.80;;;;;;4988218;28;20179;-79
2022/04/21 00:29:48;;;;;;;2.30;1.30;;;13.50;51.40;;;;;;4972424;28;20203;-78
2022/04/21 00:32:14;;;;;;;2.03;1.30;;;13.50;50.70;;;;;;4973044;28;20660;-79
2022/04/21 00:34:40;;;;;;;2.10;1.40;;;13.50;50.60;;;;;;4973130;28;20603;-79
2022/04/21 00:37:05;;;;;;;3.50;1.47;;;13.50;51.10;;;;;;4973045;28;20183;-78
2022/04/21 00:39:32;;;;;;;1.90;1.20;;;13.40;52.20;;;;;;4972530;28;20567;-79
2022/04/21 00:42:01;;;;;;;5.60;1.30;;;13.40;51.10;;;;;;4972634;28;20187;-78
2022/04/21 00:44:27;;;;;;;2.38;1.25;;;13.30;51.70;;;;;;4973084;28;20183;-78
2022/04/21 00:46:55;;;;;;;1.80;1.20;;;13.30;51.20;;;;;;4973002;28;20179;-78
2022/04/21 00:49:22;;;;;;;2.65;1.33;;;13.30;51.10;;;;;;4972402;28;20195;-78
2022/04/21 00:51:49;;;;;;;5.18;2.40;;;13.30;52.30;;;;;;4972578;28;20559;-79
2022/04/21 00:54:16;;;;;;;4.10;1.70;;;13.20;51.50;;;;;;4972460;28;20188;-78
2022/04/21 00:56:43;;;;;;;3.65;1.30;;;13.20;51.50;;;;;;4972877;28;20190;-80
2022/04/21 00:59:12;;;;;;;2.10;1.27;;;13.20;51.40;;;;;;4972189;28;20176;-80
2022/04/21 01:04:24;;;;;;;2.03;1.50;;;13.20;51.50;;;;;;4972623;28;20274;-79
2022/04/21 01:06:54;;;;;;;6.43;1.70;;;13.20;51.60;;;;;;4971342;28;20187;-79
2022/04/21 01:09:20;;;;;;;1.92;1.20;;;13.10;51.70;;;;;;4971862;28;20206;-78
2022/04/21 01:11:47;;;;;;;2.97;1.75;;;13.10;51.70;;;;;;4972104;28;20172;-79
2022/04/21 01:14:14;;;;;;;2.10;1.30;;;13.10;52.10;;;;;;4987344;28;20191;-79
2022/04/21 01:16:40;;;;;;;2.83;1.60;;;13.00;52.40;;;;;;4972600;28;20168;-79
2022/04/21 01:19:06;;;;;;;5.37;1.53;;;13.00;51.80;;;;;;4970884;28;20174;-79
2022/04/21 01:21:32;;;;;;;3.23;1.50;;;13.00;51.90;;;;;;4972221;28;20567;-79
2022/04/21 01:23:57;;;;;;;3.03;1.53;;;12.90;51.80;;;;;;4972126;28;20203;-79
2022/04/21 01:26:28;;;;;;;3.67;1.90;;;12.90;52.20;;;;;;4972714;28;20579;-79
2022/04/21 01:28:55;;;;;;;3.22;1.33;;;12.90;52.30;;;;;;4971880;28;20226;-79
2022/04/21 01:31:22;;;;;;;3.95;1.73;;;12.80;52.20;;;;;;4972575;28;20171;-79
2022/04/21 01:33:48;;;;;;;6.28;1.85;;;12.80;52.10;;;;;;4972483;28;20210;-79
2022/04/21 01:36:13;;;;;;;3.20;1.60;;;12.70;52.10;;;;;;4973327;28;20183;-79
2022/04/21 01:41:24;;;;;;;2.78;1.95;;;12.70;52.30;;;;;;4974561;28;20202;-79
2022/04/21 01:43:49;;;;;;;3.10;2.10;;;12.60;52.20;;;;;;4978895;28;20191;-78
2022/04/21 01:46:15;;;;;;;3.07;1.90;;;12.60;52.90;;;;;;4982635;28;20583;-79
2022/04/21 01:48:42;;;;;;;4.47;1.83;;;12.60;52.50;;;;;;4976671;28;20622;-79
2022/04/21 01:51:08;;;;;;;2.92;2.03;;;12.50;52.60;;;;;;4977415;28;20210;-79
2022/04/21 01:53:33;;;;;;;3.43;2.07;;;12.50;52.70;;;;;;4977108;28;20267;-78
2022/04/21 01:56:00;;;;;;;5.20;2.40;;;12.50;52.90;;;;;;4975648;28;20626;-78
2022/04/21 01:58:26;;;;;;;4.45;1.98;;;12.40;53.60;;;;;;4976274;28;20175;-78
2022/04/21 02:00:52;;;;;;;2.43;1.60;;;12.40;53.70;;;;;;4976760;28;20550;-79
2022/04/21 02:03:18;;;;;;;3.63;1.90;;;12.40;53.20;;;;;;4976842;28;20191;-79
2022/04/21 02:05:44;;;;;;;4.55;2.03;;;12.40;53.20;;;;;;4976179;28;20186;-79
2022/04/21 02:08:11;;;;;;;2.40;1.80;;;12.40;53.40;;;;;;4975310;28;20176;-79
2022/04/21 02:10:37;;;;;;;3.10;2.20;;;12.30;53.30;;;;;;4974251;28;20909;-79
2022/04/21 02:13:02;;;;;;;3.73;2.07;;;12.30;53.40;;;;;;4975627;28;20176;-79
2022/04/21 02:15:28;;;;;;;2.33;1.87;;;12.30;53.40;;;;;;4975729;28;20179;-79
2022/04/21 02:17:54;;;;;;;4.00;2.13;;;12.30;53.50;;;;;;4975605;28;20948;-79
2022/04/21 02:20:20;;;;;;;5.00;2.73;;;12.20;53.50;;;;;;4975291;28;20266;-78
2022/04/21 02:22:47;;;;;;;4.00;2.10;;;12.20;53.60;;;;;;4990342;28;20909;-79
2022/04/21 02:25:14;;;;;;;2.90;2.40;;;12.20;53.80;;;;;;4975337;28;20290;-78
2022/04/21 02:27:44;;;;;;;2.70;1.85;;;12.10;53.90;;;;;;4973703;28;20172;-79
2022/04/21 02:30:13;;;;;;;2.60;1.80;;;12.10;54.20;;;;;;4975030;28;20639;-79
2022/04/21 02:32:39;;;;;;;3.38;2.05;;;12.10;54.30;;;;;;4990417;28;20168;-79
2022/04/21 02:35:07;;;;;;;2.22;1.70;;;12.00;54.30;;;;;;4974022;28;20306;-79
2022/04/21 02:37:43;;;;;;;3.55;2.10;;;12.00;54.40;;;;;;4973315;28;20184;-79
2022/04/21 02:40:10;;;;;;;2.15;1.70;;;11.90;54.60;;;;;;4975048;28;20586;-79
2022/04/21 02:42:39;;;;;;;3.55;2.00;;;11.90;54.60;;;;;;4975091;28;20683;-78
2022/04/21 02:45:12;;;;;;;2.33;2.03;;;11.80;54.70;;;;;;4975112;28;20560;-79
2022/04/21 02:47:43;;;;;;;3.72;1.77;;;11.80;55.20;;;;;;4973559;28;20180;-79
2022/04/21 02:50:12;;;;;;;6.20;2.90;;;11.70;55.10;;;;;;4974529;28;20195;-78
2022/04/21 02:52:39;;;;;;;6.35;2.17;;;11.70;55.10;;;;;;4974961;28;20183;-78
2022/04/21 02:57:50;;;;;;;4.55;2.00;;;11.60;55.40;;;;;;4988031;28;20168;-79
2022/04/21 03:00:16;;;;;;;2.67;1.70;;;11.60;55.40;;;;;;4974520;28;20529;-78
2022/04/21 03:02:42;;;;;;;2.80;2.03;;;11.50;55.70;;;;;;4989979;28;20183;-78
2022/04/21 03:05:08;;;;;;;3.47;2.20;;;11.50;55.70;;;;;;4974556;28;20196;-78
2022/04/21 03:07:34;;;;;;;3.53;1.70;;;11.50;56.00;;;;;;4974391;28;20520;-79
2022/04/21 03:10:00;;;;;;;3.97;2.53;;;11.40;56.00;;;;;;4974349;28;20210;-78
2022/04/21 03:12:28;;;;;;;3.03;1.83;;;11.40;56.20;;;;;;4974870;28;20167;-79
2022/04/21 03:14:55;;;;;;;3.20;2.00;;;11.30;56.20;;;;;;4974522;28;20207;-78
2022/04/21 03:17:21;;;;;;;2.45;1.63;;;11.30;56.40;;;;;;4974621;28;20635;-78
2022/04/21 03:19:47;;;;;;;4.10;2.00;;;11.30;56.60;;;;;;4973522;28;20175;-78
2022/04/21 03:25:05;;;;;;;3.47;1.77;;;11.20;56.80;;;;;;4973345;28;20218;-78
2022/04/21 03:27:32;;;;;;;4.72;2.03;;;11.20;57.10;;;;;;4973411;28;20217;-78
2022/04/21 03:30:00;;;;;;;2.65;1.48;;;11.10;57.00;;;;;;4982085;28;20200;-78
2022/04/21 03:32:26;;;;;;;3.08;1.95;;;11.10;57.20;;;;;;4982847;28;20169;-78
2022/04/21 03:34:56;;;;;;;2.22;1.60;;;11.10;57.40;;;;;;4988051;28;20195;-79
2022/04/21 03:37:22;;;;;;;3.15;1.60;;;11.10;57.60;;;;;;4975737;28;20288;-78
2022/04/21 03:39:48;;;;;;;2.78;1.55;;;11.10;57.70;;;;;;4974083;28;20584;-78
2022/04/21 03:42:17;;;;;;;2.70;2.07;;;11.00;57.80;;;;;;4973634;28;20199;-79
2022/04/21 03:44:43;;;;;;;2.25;1.77;;;11.00;58.20;;;;;;4974248;28;20206;-78
2022/04/21 03:47:09;;;;;;;3.67;2.07;;;11.00;58.10;;;;;;4974161;28;20167;-78
2022/04/21 03:49:35;;;;;;;3.63;2.77;;;10.90;58.10;;;;;;4973330;28;20200;-78
2022/04/21 03:52:00;;;;;;;2.93;1.73;;;10.90;58.20;;;;;;4972722;28;20598;-78
2022/04/21 03:54:26;;;;;;;2.77;2.30;;;10.90;58.40;;;;;;4973796;28;20188;-78
2022/04/21 03:56:53;;;;;;;3.20;2.03;;;10.90;58.50;;;;;;4972617;28;20202;-78
2022/04/21 03:59:20;;;;;;;2.83;2.17;;;10.90;58.70;;;;;;4973476;28;20171;-78
2022/04/21 04:01:46;;;;;;;3.75;1.85;;;10.90;58.80;;;;;;4973581;28;20172;-78
2022/04/21 04:04:13;;;;;;;2.88;1.90;;;10.90;59.00;;;;;;4973451;28;20195;-78
2022/04/21 04:12:11;;;;;;;2.22;2.03;;;10.80;59.20;;;;;;4974799;28;20172;-78
2022/04/21 04:14:38;;;;;;;3.08;2.22;;;10.80;59.30;;;;;;4973424;28;20258;-78
2022/04/21 04:17:08;;;;;;;3.65;2.00;;;10.80;59.60;;;;;;4972238;28;20171;-78
2022/04/21 04:19:34;;;;;;;2.53;1.83;;;10.70;59.70;;;;;;4987957;28;20207;-78
2022/04/21 04:22:01;;;;;;;5.47;3.03;;;10.70;59.90;;;;;;4973280;28;20210;-79
2022/04/21 04:24:28;;;;;;;3.25;1.70;;;10.70;60.00;;;;;;4973215;28;20187;-79
2022/04/21 04:26:55;;;;;;;2.67;2.13;;;10.70;60.30;;;;;;4973455;28;20175;-78
2022/04/21 04:29:24;;;;;;;3.63;2.20;;;10.70;60.70;;;;;;4972660;28;20191;-79
2022/04/21 04:31:53;;;;;;;2.03;1.80;;;10.70;61.00;;;;;;4972740;28;20574;-79
2022/04/21 04:34:20;;;;;;;4.40;2.08;;;10.70;61.60;;;;;;4972975;28;20192;-79
2022/04/21 04:36:46;;;;;;;6.85;2.40;;;10.70;61.40;;;;;;4971859;28;20211;-78
2022/04/21 04:39:13;;;;;;;5.83;2.50;;;10.70;61.70;;;;;;4973144;28;20270;-76
2022/04/21 04:44:23;;;;;;;3.85;1.83;;;10.70;62.10;;;;;;4973112;28;20188;-76
2022/04/21 04:46:48;;;;;;;2.60;2.00;;;10.70;62.10;;;;;;4971600;28;20172;-76
2022/04/21 04:49:14;;;;;;;2.43;2.07;;;10.70;62.40;;;;;;4973183;28;20745;-75
2022/04/21 04:51:41;;;;;;;3.17;2.10;;;10.70;62.60;;;;;;4973603;28;20174;-76
2022/04/21 04:54:09;;;;;;;3.58;2.22;;;10.70;62.90;;;;;;4974486;28;20197;-75
2022/04/21 04:56:36;;;;;;;3.45;2.10;;;10.80;63.30;;;;;;4974088;28;20187;-75
2022/04/21 04:59:02;;;;;;;2.80;2.10;;;10.80;63.40;;;;;;4974297;28;20250;-75
2022/04/21 05:01:40;;;;;;;4.20;3.03;;;10.80;63.60;;;;;;4975904;28;20170;-75
2022/04/21 05:04:12;;;;;;;3.00;1.75;;;10.90;64.00;;;;;;4973616;28;20279;-76
2022/04/21 05:06:57;;;;;;;3.75;2.55;;;10.90;64.20;;;;;;4988188;28;20167;-76
2022/04/21 05:09:24;;;;;;;3.42;2.45;;;10.90;65.00;;;;;;4972675;28;20676;-76
2022/04/21 05:11:52;;;;;;;3.60;2.58;;;11.00;64.60;;;;;;4971569;28;20187;-76
2022/04/21 05:14:19;;;;;;;3.17;2.20;;;11.00;64.60;;;;;;4975376;28;20251;-75
2022/04/21 05:16:46;;;;;;;3.60;2.63;;;11.10;65.00;;;;;;4971973;28;20172;-76
2022/04/21 05:19:13;;;;;;;3.15;2.53;;;11.20;65.00;;;;;;4971820;28;20172;-76
2022/04/21 05:21:40;;;;;;;7.22;2.55;;;11.20;65.10;;;;;;4972015;28;20203;-76
2022/04/21 05:24:07;;;;;;;6.13;2.30;;;11.30;65.20;;;;;;4972540;28;20198;-76
2022/04/21 05:26:34;;;;;;;1.98;1.75;;;11.30;65.40;;;;;;4972565;28;20172;-76
2022/04/21 05:30:55;;;;;;;3.75;2.55;;;11.50;65.60;;;;;;4971858;28;20211;-76
2022/04/21 05:31:53;;;;;;;3.85;2.25;;;11.50;65.70;;;;;;4971781;28;20230;-76
2022/04/21 05:34:19;;;;;;;2.58;1.98;;;11.60;65.80;;;;;;4972407;28;20510;-76
2022/04/21 05:36:45;;;;;;;3.70;2.47;;;11.70;66.00;;;;;;4972414;28;20187;-76
2022/04/21 05:39:11;;;;;;;2.80;2.00;;;11.80;66.00;;;;;;4971974;28;20607;-76
2022/04/21 05:41:37;;;;;;;3.60;2.08;;;11.90;66.00;;;;;;4972116;28;20595;-76
2022/04/21 05:44:04;;;;;;;2.60;2.40;;;12.00;66.00;;;;;;4970988;28;20229;-76
2022/04/21 05:46:31;;;;;;;2.95;2.03;;;12.00;65.90;;;;;;4966234;28;21182;-75
2022/04/21 05:48:57;;;;;;;4.30;2.73;;;12.10;66.40;;;;;;4955945;28;20199;-75
2022/04/21 05:51:24;;;;;;;5.70;1.80;;;12.20;66.00;;;;;;4971655;28;20630;-75
2022/04/21 05:53:50;;;;;;;4.07;2.47;;;12.30;66.90;;;;;;4971966;28;20196;-75
2022/04/21 05:56:16;;;;;;;3.95;2.40;;;12.40;66.20;;;;;;4971849;28;20204;-74
2022/04/21 05:58:42;;;;;;;2.38;1.73;;;12.50;66.20;;;;;;4971491;28;20192;-74
2022/04/21 06:01:09;;;;;;;5.77;2.40;;;12.60;66.00;;;;;;4970983;28;20220;-75
2022/04/21 06:03:37;;;;;;;6.63;2.38;;;12.70;65.80;;;;;;4953860;28;20670;-74
2022/04/21 06:06:07;;;;;;;3.25;1.35;;;12.80;65.60;;;;;;4954248;28;20187;-74
2022/04/21 06:08:33;;;;;;;3.17;1.95;;;12.90;65.40;;;;;;4971355;28;20191;-76
2022/04/21 06:10:58;;;;;;;4.13;2.23;;;12.90;65.10;;;;;;4971520;28;20175;-76
2022/04/21 06:13:25;;;;;;;3.77;1.83;;;13.00;65.10;;;;;;4971728;28;20636;-75
2022/04/21 06:15:53;;;;;;;3.00;1.88;;;13.20;65.00;;;;;;4971837;28;20168;-76
2022/04/21 06:18:19;;;;;;;5.82;2.20;;;13.20;64.60;;;;;;4971386;28;20176;-75
2022/04/21 06:20:46;;;;;;;3.60;2.20;;;13.30;65.30;;;;;;4970269;28;20171;-76
2022/04/21 06:23:12;;;;;;;2.50;1.63;;;13.50;64.20;;;;;;4970655;28;20171;-76
2022/04/21 06:25:38;;;;;;;2.63;1.60;;;13.60;64.20;;;;;;4975316;28;20715;-76
2022/04/21 06:28:04;;;;;;;2.30;1.50;;;13.80;64.80;;;;;;4968453;28;20180;-76
2022/04/21 06:30:31;;;;;;;2.67;1.70;;;14.50;67.20;;;;;;4969451;28;20218;-76
2022/04/21 06:33:01;;;;;;;3.83;1.80;;;15.50;69.10;;;;;;4975167;28;20199;-75
2022/04/21 06:35:27;;;;;;;2.40;1.40;;;16.60;69.40;;;;;;4957846;28;20567;-76
2022/04/21 06:37:54;;;;;;;2.47;1.17;;;17.90;70.10;;;;;;4974656;28;20637;-76
2022/04/21 06:40:20;;;;;;;4.33;1.30;;;19.10;69.50;;;;;;4974607;28;20583;-76
2022/04/21 06:42:46;;;;;;;3.00;1.47;;;20.20;68.10;;;;;;4957470;28;20606;-76
2022/04/21 06:48:03;;;;;;;3.00;1.63;;;22.50;64.70;;;;;;4973985;28;20583;-75
2022/04/21 06:50:37;;;;;;;1.87;1.17;;;23.60;61.80;;;;;;4967698;28;20661;-75
2022/04/21 06:53:07;;;;;;;1.90;1.30;;;24.50;58.30;;;;;;4974693;28;20619;-75
2022/04/21 06:55:33;;;;;;;2.60;1.50;;;25.50;58.00;;;;;;4974823;28;20579;-76
2022/04/21 06:58:00;;;;;;;4.10;2.33;;;26.30;57.20;;;;;;4973938;28;20757;-75
2022/04/21 07:00:27;;;;;;;4.60;2.00;;;26.90;52.00;;;;;;4973191;28;20590;-75
2022/04/21 07:02:55;;;;;;;2.20;1.70;;;27.60;53.60;;;;;;4974841;28;20567;-76
2022/04/21 07:05:22;;;;;;;2.60;1.70;;;28.20;52.70;;;;;;4974719;28;20578;-76
2022/04/21 07:07:49;;;;;;;4.07;1.80;;;28.70;50.00;;;;;;4974166;28;20599;-76
2022/04/21 07:10:16;;;;;;;2.50;1.10;;;28.70;47.90;;;;;;4974396;28;20721;-75
2022/04/21 07:12:42;;;;;;;2.77;1.60;;;28.80;48.00;;;;;;4973624;28;20670;-76
2022/04/21 07:15:10;;;;;;;1.87;1.40;;;29.00;46.10;;;;;;4964478;28;20638;-76
2022/04/21 07:17:36;;;;;;;2.10;1.30;;;29.30;46.60;;;;;;4974380;28;21134;-75
2022/04/21 07:20:04;;;;;;;5.63;1.50;;;29.80;46.40;;;;;;4974439;28;20580;-75
2022/04/21 07:22:31;;;;;;;1.60;1.00;;;30.20;45.80;;;;;;4957397;28;20579;-75
2022/04/21 07:24:58;;;;;;;3.00;1.90;;;30.60;45.00;;;;;;4974344;28;21006;-75
2022/04/21 07:27:24;;;;;;;1.63;1.20;;;30.60;43.00;;;;;;4974262;28;20581;-75
2022/04/21 07:29:51;;;;;;;1.70;1.00;;;30.60;42.80;;;;;;4971827;28;20681;-75
2022/04/21 07:32:18;;;;;;;3.67;1.37;;;30.80;42.60;;;;;;4974511;28;20946;-75
2022/04/21 07:34:44;;;;;;;1.70;1.10;;;31.20;42.60;;;;;;4972808;28;20702;-75
2022/04/21 07:37:10;;;;;;;2.00;1.30;;;31.20;40.50;;;;;;4956959;28;21150;-75
2022/04/21 07:39:37;;;;;;;2.50;1.60;;;31.20;39.70;;;;;;4973489;28;20575;-76
2022/04/21 07:42:10;;;;;;;3.40;1.13;;;31.10;39.40;;;;;;4973460;28;20579;-75
2022/04/21 07:44:36;;;;;;;2.43;1.57;;;30.80;38.80;;;;;;4956082;28;20936;-75
2022/04/21 07:47:04;;;;;;;2.70;1.40;;;30.70;39.10;;;;;;4974087;28;20583;-75
2022/04/21 07:49:45;;;;;;;1.50;1.20;;;30.90;38.90;;;;;;4973259;28;20624;-75
2022/04/21 07:55:11;;;;;;;1.90;1.10;;;30.80;37.70;;;;;;4973528;28;20657;-75
2022/04/21 07:57:36;;;;;;;1.87;0.97;;;30.50;38.00;;;;;;4973474;28;20733;-75
2022/04/21 08:00:05;;;;;;;1.70;1.10;;;30.20;37.70;;;;;;4972619;28;20666;-75
2022/04/21 08:02:42;;;;;;;2.27;1.30;;;30.10;37.60;;;;;;4973406;28;20171;-75
2022/04/21 08:05:09;;;;;;;1.83;1.00;;;30.00;37.70;;;;;;4974487;28;20642;-76
2022/04/21 08:07:36;;;;;;;2.07;1.40;;;30.10;38.10;;;;;;4974466;28;21051;-75
2022/04/21 08:10:04;;;;;;;4.93;1.07;;;30.40;38.50;;;;;;4971308;28;20634;-75
2022/04/21 08:12:39;;;;;;;2.27;1.20;;;30.70;38.30;;;;;;4972531;28;20582;-74
2022/04/21 08:15:07;;;;;;;2.50;1.13;;;30.90;37.50;;;;;;4972642;28;20630;-75
2022/04/21 08:17:33;;;;;;;2.10;1.30;;;31.00;37.60;;;;;;4971751;28;20602;-73
2022/04/21 08:19:59;;;;;;;1.73;1.27;;;31.00;37.00;;;;;;4956260;28;20594;-73
2022/04/21 08:22:25;;;;;;;1.40;0.90;;;31.00;36.90;;;;;;4973974;28;20583;-73
2022/04/21 08:33:03;;;;;;;1.60;1.17;;;31.20;36.80;;;;;;4973257;28;20567;-72
2022/04/21 08:35:29;;;;;;;2.47;1.10;;;31.00;35.30;;;;;;4972145;28;20579;-73
2022/04/21 08:37:54;;;;;;;1.60;0.90;;;31.00;35.70;;;;;;4972534;28;20183;-72
2022/04/21 08:40:22;;;;;;;1.60;0.80;;;31.30;35.50;;;;;;4972320;28;20175;-75
2022/04/21 08:42:52;;;;;;;7.80;0.90;;;31.50;33.90;;;;;;4972647;28;20167;-74
2022/04/21 08:45:18;;;;;;;1.97;0.83;;;31.60;34.40;;;;;;4972387;28;20615;-73
2022/04/21 08:47:48;;;;;;;2.40;0.80;;;31.60;30.90;;;;;;4972066;28;20587;-74
2022/04/21 08:50:16;;;;;;;1.50;0.80;;;31.70;32.70;;;;;;4972665;28;21091;-74
2022/04/21 08:52:43;;;;;;;3.03;0.80;;;31.50;31.00;;;;;;4972892;28;20570;-74
2022/04/21 08:55:10;;;;;;;3.80;0.73;;;30.90;30.00;;;;;;4970304;28;20615;-73
2022/04/21 08:57:36;;;;;;;2.33;0.70;;;30.30;30.10;;;;;;4972388;28;20571;-73
2022/04/21 09:00:07;;;;;;;2.63;1.10;;;30.30;31.00;;;;;;4972338;28;20678;-73
2022/04/21 09:02:41;;;;;;;1.80;0.70;;;30.00;29.00;;;;;;4971644;28;21151;-74
2022/04/21 09:05:08;;;;;;;1.60;0.70;;;29.90;30.70;;;;;;4973332;28;20602;-74
2022/04/21 09:07:48;;;;;;;1.80;0.70;;;30.10;30.40;;;;;;4972402;28;20935;-74
2022/04/21 09:10:15;;;;;;;1.30;0.80;;;30.30;28.50;;;;;;4971501;28;20614;-75
2022/04/21 09:12:46;;;;;;;1.50;1.10;;;30.50;30.90;;;;;;4972684;28;20603;-75
2022/04/21 09:15:17;;;;;;;2.53;0.80;;;30.60;31.10;;;;;;4972816;28;20607;-74
2022/04/21 09:17:45;;;;;;;1.53;0.60;;;31.00;31.50;;;;;;4971104;28;20883;-74
2022/04/21 09:20:13;;;;;;;1.50;0.70;;;31.40;31.70;;;;;;4972542;28;20572;-74
2022/04/21 09:22:52;;;;;;;1.60;0.70;;;31.80;31.70;;;;;;4971407;28;21014;-74
2022/04/21 09:25:20;;;;;;;1.20;0.60;;;32.40;30.80;;;;;;4972640;28;20603;-74
2022/04/21 09:27:49;;;;;;;1.93;0.60;;;32.70;30.50;;;;;;4972145;28;20580;-75
2022/04/21 09:30:16;;;;;;;1.50;0.70;;;33.00;31.10;;;;;;4955127;28;20723;-74
2022/04/21 09:32:56;;;;;;;1.40;0.70;;;33.40;30.90;;;;;;4972583;28;20589;-75
2022/04/21 09:35:26;;;;;;;1.50;0.60;;;33.60;29.60;;;;;;4972726;28;20583;-75
2022/04/21 09:37:54;;;;;;;3.20;0.70;;;33.60;29.40;;;;;;4971755;28;20603;-75
2022/04/21 09:40:27;;;;;;;3.60;0.90;;;33.60;29.30;;;;;;4955099;28;20602;-75
2022/04/21 09:43:01;;;;;;;2.37;0.90;;;33.50;28.50;;;;;;4971435;28;20571;-75
2022/04/21 09:48:22;;;;;;;1.50;0.70;;;32.90;28.60;;;;;;4954723;28;20580;-76
2022/04/21 09:50:53;;;;;;;1.40;0.70;;;32.80;28.70;;;;;;4954818;28;20575;-76
2022/04/21 09:53:21;;;;;;;1.80;0.80;;;32.90;29.50;;;;;;4954978;28;20645;-76
2022/04/21 09:55:49;;;;;;;1.70;0.80;;;33.10;29.40;;;;;;4972123;28;20600;-76
2022/04/21 09:58:16;;;;;;;2.30;0.77;;;33.30;29.20;;;;;;4972259;28;20585;-75
2022/04/21 10:00:42;;;;;;;1.70;0.83;;;33.60;29.00;;;;;;4973753;28;20581;-76
2022/04/21 10:03:08;;;;;;;2.90;1.00;;;33.70;29.00;;;;;;4972984;28;20570;-74
2022/04/21 10:05:36;;;;;;;1.40;0.80;;;33.80;28.70;;;;;;4971887;28;20972;-75
2022/04/21 10:08:05;;;;;;;1.90;0.70;;;33.70;27.60;;;;;;4976284;28;20900;-75
2022/04/21 10:10:32;;;;;;;1.37;0.67;;;33.20;27.80;;;;;;4976423;28;20614;-75
2022/04/21 10:13:00;;;;;;;2.00;0.97;;;32.50;27.40;;;;;;4975355;28;21285;-75
2022/04/21 10:15:27;;;;;;;1.30;0.60;;;31.80;27.80;;;;;;4976405;28;20591;-75
2022/04/21 10:17:53;;;;;;;2.07;0.70;;;31.60;28.10;;;;;;4975671;28;20610;-75
2022/04/21 10:20:28;;;;;;;2.37;1.20;;;31.40;28.40;;;;;;4975981;28;20574;-75
2022/04/21 10:22:56;;;;;;;1.53;0.70;;;31.30;28.30;;;;;;4976048;28;20559;-74
2022/04/21 10:25:36;;;;;;;1.20;0.53;;;31.20;28.30;;;;;;4975766;28;20567;-75
2022/04/21 10:28:41;;;;;;;2.07;0.60;;;31.00;28.20;;;;;;4974718;28;20578;-75
2022/04/21 10:31:29;;;;;;;1.40;0.70;;;30.90;27.90;;;;;;4963316;28;20582;-74
2022/04/21 10:34:00;;;;;;;2.70;1.03;;;30.60;28.30;;;;;;4973448;28;20678;-75
2022/04/21 10:36:41;;;;;;;1.50;0.60;;;30.20;27.90;;;;;;4974958;28;20640;-75
2022/04/21 10:39:10;;;;;;;1.80;0.77;;;29.80;28.30;;;;;;4974843;28;20578;-75
2022/04/21 10:41:38;;;;;;;1.70;0.70;;;29.30;27.80;;;;;;4957778;28;20666;-75
2022/04/21 10:44:11;;;;;;;1.50;0.70;;;28.80;28.00;;;;;;4973863;28;20661;-76
2022/04/21 10:46:37;;;;;;;1.50;0.70;;;28.50;28.40;;;;;;4975284;28;21019;-76
2022/04/21 10:49:03;;;;;;;3.20;0.70;;;28.10;28.30;;;;;;4972911;28;20729;-76
2022/04/21 10:57:16;;;;;;;2.23;0.77;;;27.50;29.10;;;;;;4973498;28;20583;-74
2022/04/21 11:00:22;;;;;;;1.40;0.70;;;27.40;29.20;;;;;;4974158;28;20622;-75
2022/04/21 11:03:04;;;;;;;1.50;0.80;;;27.40;29.10;;;;;;4974816;28;20633;-75
2022/04/21 11:05:34;;;;;;;2.03;0.80;;;27.30;29.40;;;;;;4974916;28;20590;-74
2022/04/21 11:08:10;;;;;;;3.97;0.90;;;27.20;29.70;;;;;;4972936;28;20597;-74
2022/04/21 11:10:41;;;;;;;1.90;0.80;;;27.10;29.90;;;;;;4968835;28;20658;-75
2022/04/21 11:13:17;;;;;;;3.53;1.00;;;27.00;30.00;;;;;;4981163;28;20590;-75
2022/04/21 11:15:53;;;;;;;1.60;0.80;;;26.80;30.10;;;;;;4973523;28;21237;-75
2022/04/21 11:18:20;;;;;;;1.90;1.00;;;26.80;30.50;;;;;;4955218;28;20644;-75
2022/04/21 11:20:50;;;;;;;3.20;1.10;;;26.90;30.70;;;;;;4956408;28;21064;-75
2022/04/21 11:23:45;;;;;;;2.23;1.07;;;26.90;30.70;;;;;;4974375;28;20609;-75
2022/04/21 11:26:11;;;;;;;1.80;0.97;;;26.80;30.80;;;;;;4957228;28;21135;-74
2022/04/21 11:28:45;;;;;;;5.07;1.10;;;26.80;30.70;;;;;;4971240;28;20636;-75
2022/04/21 11:31:12;;;;;;;3.20;0.80;;;26.70;31.40;;;;;;4981165;28;20575;-75
2022/04/21 11:33:39;;;;;;;3.33;1.10;;;26.60;30.90;;;;;;4972802;28;20618;-75
2022/04/21 11:36:09;;;;;;;2.50;0.97;;;26.60;31.80;;;;;;4973963;28;20603;-75
2022/04/21 11:38:43;;;;;;;2.20;1.30;;;26.60;31.30;;;;;;4973091;28;20591;-75
2022/04/21 11:41:11;;;;;;;3.43;1.10;;;26.50;31.50;;;;;;4973879;28;20579;-76
2022/04/21 11:43:44;;;;;;;2.43;0.90;;;26.50;31.50;;;;;;4972104;28;20634;-73
2022/04/21 11:46:12;;;;;;;2.33;1.00;;;26.40;31.50;;;;;;4973811;28;20579;-74
2022/04/21 11:48:42;;;;;;;3.43;1.27;;;26.30;31.70;;;;;;4973130;28;20630;-74
2022/04/21 11:51:09;;;;;;;1.93;1.70;;;26.20;31.90;;;;;;4973212;28;20662;-74
2022/04/21 11:53:37;;;;;;;1.60;0.90;;;26.10;32.10;;;;;;4963813;28;20631;-74
2022/04/21 11:56:07;;;;;;;1.50;0.87;;;26.10;32.60;;;;;;4961561;28;20629;-74
2022/04/21 11:58:37;;;;;;;2.23;0.97;;;26.00;32.70;;;;;;4973536;28;20714;-75
2022/04/21 12:06:47;;;;;;;2.23;1.20;;;26.10;32.70;;;;;;4973242;28;20628;-74
2022/04/21 12:09:16;;;;;;;6.10;1.20;;;26.10;32.90;;;;;;4978690;28;20707;-74
2022/04/21 12:11:46;;;;;;;4.17;0.93;;;26.10;32.90;;;;;;4956584;28;20642;-74
2022/04/21 12:14:13;;;;;;;1.97;0.87;;;26.10;33.00;;;;;;4972827;28;20599;-74
2022/04/21 12:16:40;;;;;;;2.10;1.20;;;26.10;33.20;;;;;;4982629;28;20619;-73
2022/04/21 12:19:32;;;;;;;1.60;0.87;;;26.20;33.10;;;;;;4985670;28;21138;-72
2022/04/21 12:22:13;;;;;;;1.90;0.90;;;26.20;33.20;;;;;;4963150;28;20736;-72
2022/04/21 12:24:39;;;;;;;1.83;0.90;;;26.30;33.20;;;;;;4958616;28;20757;-73
2022/04/21 12:27:34;;;;;;;2.10;1.20;;;26.40;33.50;;;;;;4986315;28;20662;-73
2022/04/21 12:30:05;;;;;;;1.70;1.10;;;26.40;33.60;;;;;;4954821;28;20207;-73
2022/04/21 12:32:36;;;;;;;1.80;1.13;;;26.50;33.60;;;;;;4959309;28;20595;-73
2022/04/21 12:35:07;;;;;;;3.83;1.23;;;26.50;33.50;;;;;;4983760;28;20602;-73
2022/04/21 12:37:39;;;;;;;3.57;1.10;;;26.20;33.20;;;;;;4973242;28;21018;-74
2022/04/21 12:40:07;;;;;;;2.83;0.93;;;26.20;33.40;;;;;;4971838;28;21178;-73
2022/04/21 12:42:33;;;;;;;3.10;0.97;;;26.10;33.50;;;;;;4971321;28;20594;-73
2022/04/21 12:45:00;;;;;;;1.57;0.80;;;26.10;33.50;;;;;;4954697;28;20778;-73
2022/04/21 12:47:27;;;;;;;6.23;1.03;;;26.10;33.60;;;;;;4972360;28;20571;-74
2022/04/21 12:50:10;;;;;;;1.63;0.90;;;26.10;33.90;;;;;;4970116;28;20630;-73
2022/04/21 12:52:53;;;;;;;2.43;0.90;;;26.00;34.00;;;;;;4971004;28;21124;-73
2022/04/21 12:55:19;;;;;;;2.27;1.00;;;25.80;34.10;;;;;;4970634;28;20958;-73
2022/04/21 12:58:06;;;;;;;2.33;1.10;;;25.80;33.80;;;;;;4972177;28;20586;-74
2022/04/21 13:00:34;;;;;;;1.73;0.90;;;25.70;34.00;;;;;;4971317;28;20742;-73
2022/04/21 13:03:01;;;;;;;4.43;0.97;;;25.70;33.80;;;;;;4970917;28;21081;-73
2022/04/21 13:05:27;;;;;;;1.80;1.00;;;25.50;33.80;;;;;;4971004;28;20981;-73
2022/04/21 13:07:54;;;;;;;2.10;0.90;;;25.30;33.70;;;;;;4972036;28;20666;-73
2022/04/21 13:10:21;;;;;;;2.23;1.00;;;25.10;33.60;;;;;;4970498;28;20619;-73
2022/04/21 13:12:48;;;;;;;2.33;0.80;;;24.70;33.60;;;;;;4971182;28;20594;-73
2022/04/21 13:15:13;;;;;;;1.60;1.00;;;24.30;33.50;;;;;;4971988;28;20602;-73
2022/04/21 13:17:42;;;;;;;8.20;1.00;;;24.00;33.90;;;;;;4971759;28;20915;-73
2022/04/21 13:20:11;;;;;;;2.07;0.60;;;23.80;34.10;;;;;;4971828;28;20180;-72
2022/04/21 13:22:37;;;;;;;2.37;0.80;;;23.60;34.30;;;;;;4972158;28;20575;-72
2022/04/21 13:25:03;;;;;;;2.33;0.80;;;23.50;34.50;;;;;;4970635;28;20613;-72
2022/04/21 13:27:29;;;;;;;2.00;1.00;;;23.30;34.80;;;;;;4971181;28;20327;-72
2022/04/21 13:29:55;;;;;;;2.23;0.90;;;23.10;35.50;;;;;;4953759;28;20674;-74
2022/04/21 13:35:07;;;;;;;3.03;1.10;;;22.80;35.70;;;;;;4972466;28;20621;-74
2022/04/21 13:37:33;;;;;;;2.10;1.03;;;22.50;36.60;;;;;;4972410;28;20587;-73
2022/04/21 13:39:58;;;;;;;1.97;1.43;;;22.20;37.20;;;;;;4954360;28;20578;-74
2022/04/21 13:42:24;;;;;;;2.10;0.83;;;22.10;36.00;;;;;;4957639;28;21205;-73
2022/04/21 13:44:53;;;;;;;1.50;0.93;;;22.00;36.80;;;;;;4973120;28;20621;-73
2022/04/21 13:47:19;;;;;;;3.00;1.10;;;21.90;36.60;;;;;;4967034;28;20595;-73